Delhi, Texas
Current Conditions -  °F | °C
As of 11:35 PM on Friday 24 Oct 2014 (Local Time) from K3T5 Reporting Station
Clear Clear  
Wind Chill: 68°   Ceiling: Unl
Heat Index: 68°   Visibility: 10mi
Dew Point: 60°   Wind: 3mph
Humidity: 74%   Direction: 160°SSE
Pressure: 30.13"   Gusts: NA
Location:  29.8725°N, 97.3223°W
Report Text: K3T5 250435Z AUTO 16003KT 10SM CLR 20/15 A3013 RMK AO2 T02020154
Loading
Personal Weather Stations






























Interactive Weather Map
Tropical Storm Tracking
New forecast layout! Learn more

10-Day Weather Forecast

Advertisements
Track Severe Weather on mobile